This is the latest recevied weather packets stored in our database for station/object N9XTN-3. If no packets are shown the sender has not sent any weather packets the latest 10 day(s).
| Time | Temp. | Humidity | Pressure | Rain* | Wind** | Luminosity | Snow |
|---|---|---|---|---|---|---|---|
| 1777555817 | 8.33° C | 86% | 1017.5 hPa | 0 mm | - | - | - |
| 1777554017 | 7.78° C | 87% | 1017.2 hPa | 0 mm | - | - | - |
| 1777553158 | 7.78° C | 87% | 1017 hPa | 0 mm | - | - | - |
| 1777552817 | 7.78° C | 87% | 1017 hPa | 0 mm | - | - | - |
| 1777552517 | 7.78° C | 87% | 1017 hPa | 0 mm | - | - | - |
| 1777551017 | 7.78° C | 86% | 1016.6 hPa | 0 mm | - | - | - |
| 1777546817 | 7.78° C | 89% | 1016.5 hPa | 0 mm | - | - | - |
| 1777545938 | 7.78° C | 91% | 1016.6 hPa | 0 mm | - | - | - |
| 1777545617 | 7.22° C | 91% | 1016.5 hPa | 0 mm | - | - | - |
| 1777543817 | 6.67° C | 90% | 1016.2 hPa | 0 mm | - | - | - |
| 1777542617 | 7.22° C | 90% | 1016.2 hPa | 0 mm | - | - | - |
| 1777541419 | 7.78° C | 90% | 1016.3 hPa | 0 mm | - | - | - |
| 1777539316 | 8.33° C | 90% | 1016.1 hPa | 0 mm | - | - | - |
| 1777538717 | 8.33° C | 90% | 1016.1 hPa | 0 mm | - | - | - |
| 1777533918 | 8.33° C | 91% | 1017.1 hPa | 0 mm | - | - | - |
| 1777532717 | 8.89° C | 90% | 1017.4 hPa | 0 mm | - | - | - |
| 1777532117 | 8.89° C | 90% | 1017.7 hPa | 0.25 mm | - | - | - |
| 1777531518 | 8.89° C | 90% | 1017.7 hPa | 0.76 mm | - | - | - |
| 1777530017 | 9.44° C | 88% | 1018.3 hPa | 1.78 mm | - | - | - |
| 1777528817 | 9.44° C | 87% | 1018.5 hPa | 2.79 mm | - | - | - |
| 1777527638 | 10° C | 84% | 1018.9 hPa | 4.06 mm | - | - | - |
| 1777526717 | 10° C | 81% | 1019.1 hPa | 3.3 mm | - | - | - |
| 1777522816 | 10.56° C | 69% | 1017.6 hPa | 0 mm | - | - | - |
| 1777521016 | 10.56° C | 72% | 1017.5 hPa | 0 mm | - | - | - |
| 1777519515 | 10.56° C | 72% | 1017.7 hPa | 0 mm | - | - | - |
* Rain latest hour (hover to see other rain measurements)
** Current wind speed in m/s (hover to see current wind gust speed)